| time (UTC) | temp C | wind direction | speed KPH | gust KPH | rain 1hr cm | rain 24hr cm | rain mn cm | humidity % | barometer mb |
| 20260906021607 | 27 | 0 | 0.0 | 0.0 | 0.00 | 0.00 | 0.00 | 68 | 1013.2 |
| 20260906020107 | 27 | 0 | 0.0 | 0.0 | 0.00 | 0.00 | 0.00 | 68 | 1013.0 |
| 20260906014558 | 27 | 0 | 0.0 | 0.0 | 0.00 | 0.00 | 0.00 | 68 | 1012.7 |
| 20260906013105 | 28 | 0 | 0.0 | 0.0 | 0.00 | 0.00 | 0.00 | 65 | 1012.6 |
| 20260906011604 | 29 | 0 | 0.0 | 0.0 | 0.00 | 0.00 | 0.00 | 62 | 1012.6 |
| 20260906010105 | 29 | 227 | 0.0 | 4.8 | 0.00 | 0.00 | 0.00 | 59 | 1012.5 |
| 20260906004603 | 30 | 227 | 1.6 | 6.4 | 0.00 | 0.00 | 0.00 | 59 | 1012.4 |
| 20260906003101 | 30 | 225 | 3.2 | 9.7 | 0.00 | 0.00 | 0.00 | 59 | 1012.2 |
| 20260906001559 | 30 | 215 | 1.6 | 9.7 | 0.00 | 0.00 | 0.00 | 57 | 1012.4 |
| 20260906000111 | 30 | 0 | 6.4 | 12.9 | 0.00 | 0.00 | 0.00 | 57 | 1012.6 |
| 20260905234620 | 30 | 211 | 4.8 | 14.5 | 0.00 | 0.00 | 0.00 | 56 | 1012.7 |
| 20260905233102 | 30 | 221 | 6.4 | 14.5 | 0.00 | 0.00 | 0.00 | 55 | 1012.8 |
| 20260905231605 | 30 | 268 | 6.4 | 16.1 | 0.00 | 0.00 | 0.00 | 55 | 1012.6 |
| 20260905230106 | 31 | 245 | 8.0 | 19.3 | 0.00 | 0.00 | 0.00 | 53 | 1012.8 |
| 20260905224616 | 31 | 213 | 6.4 | 17.7 | 0.00 | 0.00 | 0.00 | 52 | 1012.5 |
| 20260905223100 | 32 | 234 | 8.0 | 27.4 | 0.00 | 0.00 | 0.00 | 50 | 1012.7 |
| 20260905221602 | 32 | 241 | 11.3 | 19.3 | 0.00 | 0.00 | 0.00 | 49 | 1012.4 |
| 20260905220118 | 33 | 203 | 9.7 | 22.5 | 0.00 | 0.00 | 0.00 | 48 | 1012.6 |
| 20260905214603 | 33 | 201 | 6.4 | 19.3 | 0.00 | 0.00 | 0.00 | 49 | 1012.8 |
| 20260905213102 | 32 | 155 | 8.0 | 27.4 | 0.00 | 0.00 | 0.00 | 52 | 1012.7 |
| 20260905211556 | 32 | 202 | 20.9 | 32.2 | 0.00 | 0.00 | 0.00 | 53 | 1012.7 |
| 20260905210109 | 32 | 215 | 14.5 | 27.4 | 0.00 | 0.00 | 0.00 | 53 | 1013.3 |
| 20260905204559 | 34 | 196 | 16.1 | 43.5 | 0.00 | 0.00 | 0.00 | 45 | 1013.3 |
| 20260905203114 | 39 | 207 | 1.6 | 16.1 | 0.00 | 0.00 | 0.00 | 35 | 1012.9 |
| 20260905201603 | 39 | 345 | 3.2 | 8.0 | 0.00 | 0.00 | 0.00 | 38 | 1012.8 |
| 20260905200107 | 38 | 5 | 4.8 | 14.5 | 0.00 | 0.00 | 0.00 | 39 | 1013.1 |
| 20260905194558 | 39 | 355 | 4.8 | 16.1 | 0.00 | 0.00 | 0.00 | 38 | 1013.1 |
| 20260905193103 | 39 | 355 | 6.4 | 14.5 | 0.00 | 0.00 | 0.00 | 40 | 1013.4 |
| 20260905191605 | 38 | 44 | 4.8 | 16.1 | 0.00 | 0.00 | 0.00 | 39 | 1013.5 |
| 20260905184611 | 38 | 24 | 6.4 | 16.1 | 0.00 | 0.00 | 0.00 | 39 | 1014.1 |
| 20260905183057 | 37 | 352 | 4.8 | 19.3 | 0.00 | 0.00 | 0.00 | 41 | 1014.1 |
| 20260905181603 | 37 | 302 | 4.8 | 16.1 | 0.00 | 0.00 | 0.00 | 44 | 1014.2 |
| 20260905180105 | 37 | 360 | 8.0 | 16.1 | 0.00 | 0.00 | 0.00 | 46 | 1014.3 |
| 20260905174604 | 36 | 284 | 6.4 | 14.5 | 0.00 | 0.00 | 0.00 | 47 | 1014.4 |
| 20260905173105 | 36 | 273 | 9.7 | 14.5 | 0.00 | 0.00 | 0.00 | 46 | 1014.6 |
| 20260905171635 | 36 | 277 | 4.8 | 14.5 | 0.00 | 0.00 | 0.00 | 46 | 1014.9 |
| 20260905170107 | 36 | 0 | 3.2 | 14.5 | 0.00 | 0.00 | 0.00 | 48 | 1015.1 |
| 20260905164605 | 36 | 346 | 4.8 | 14.5 | 0.00 | 0.00 | 0.00 | 48 | 1015.2 |
| 20260905163058 | 35 | 254 | 3.2 | 16.1 | 0.00 | 0.00 | 0.00 | 48 | 1015.2 |
| 20260905161601 | 35 | 321 | 3.2 | 14.5 | 0.00 | 0.00 | 0.00 | 48 | 1015.3 |
| 20260905160109 | 33 | 310 | 6.4 | 14.5 | 0.00 | 0.00 | 0.00 | 52 | 1015.4 |
| 20260905154648 | 32 | 281 | 3.2 | 12.9 | 0.00 | 0.00 | 0.00 | 57 | 1015.5 |
| 20260905153104 | 32 | 270 | 3.2 | 8.0 | 0.00 | 0.00 | 0.00 | 61 | 1015.7 |
| 20260905151604 | 31 | 180 | 0.0 | 6.4 | 0.00 | 0.00 | 0.00 | 63 | 1015.7 |
| 20260905150105 | 30 | 0 | 1.6 | 8.0 | 0.00 | 0.00 | 0.00 | 64 | 1015.4 |
| 20260905144610 | 30 | 0 | 0.0 | 8.0 | 0.00 | 0.00 | 0.00 | 63 | 1015.4 |
| 20260905143106 | 30 | 286 | 6.4 | 12.9 | 0.00 | 0.00 | 0.00 | 62 | 1015.4 |
| 20260905141601 | 29 | 188 | 8.0 | 14.5 | 0.00 | 0.00 | 0.00 | 65 | 1015.4 |
| 20260905140105 | 28 | 154 | 4.8 | 11.3 | 0.00 | 0.00 | 0.00 | 68 | 1015.5 |
| 20260905134608 | 27 | 200 | 4.8 | 12.9 | 0.00 | 0.00 | 0.00 | 70 | 1015.5 |
| 20260905133103 | 27 | 178 | 4.8 | 12.9 | 0.00 | 0.00 | 0.00 | 75 | 1015.3 |
| 20260905131559 | 26 | 215 | 3.2 | 9.7 | 0.00 | 0.00 | 0.00 | 78 | 1015.2 |
| 20260905130101 | 26 | 165 | 3.2 | 9.7 | 0.00 | 0.00 | 0.00 | 79 | 1015.4 |
| 20260905124602 | 26 | 191 | 3.2 | 8.0 | 0.00 | 0.00 | 0.00 | 79 | 1015.1 |
| 20260905123105 | 26 | 166 | 0.0 | 4.8 | 0.00 | 0.00 | 0.00 | 81 | 1015.1 |
| 20260905121608 | 26 | 154 | 0.0 | 3.2 | 0.00 | 0.00 | 0.00 | 80 | 1015.0 |
| 20260905114607 | 26 | 205 | 0.0 | 0.0 | 0.00 | 0.00 | 0.00 | 78 | 1014.7 |
| 20260905113100 | 26 | 205 | 0.0 | 3.2 | 0.00 | 0.00 | 0.00 | 77 | 1014.5 |
| 20260905111625 | 26 | 205 | 1.6 | 6.4 | 0.00 | 0.00 | 0.00 | 76 | 1014.5 |
| 20260905110112 | 26 | 0 | 0.0 | 0.0 | 0.00 | 0.00 | 0.00 | 78 | 1014.4 |
| 20260905104618 | 26 | 0 | 0.0 | 3.2 | 0.00 | 0.00 | 0.00 | 78 | 1014.4 |
| 20260905103055 | 26 | 204 | 0.0 | 4.8 | 0.00 | 0.00 | 0.00 | 79 | 1014.5 |
| 20260905101557 | 26 | 0 | 1.6 | 6.4 | 0.00 | 0.00 | 0.00 | 78 | 1014.5 |
| 20260905100056 | 26 | 215 | 1.6 | 9.7 | 0.00 | 0.00 | 0.00 | 77 | 1014.3 |
| 20260905094715 | 26 | 178 | 1.6 | 6.4 | 0.00 | 0.00 | 0.00 | 77 | 1014.3 |
| 20260905093116 | 26 | 0 | 0.0 | 4.8 | 0.00 | 0.00 | 0.00 | 76 | 1014.4 |
| 20260905091604 | 26 | 178 | 1.6 | 4.8 | 0.00 | 0.00 | 0.00 | 76 | 1014.3 |
| 20260905090103 | 26 | 178 | 1.6 | 6.4 | 0.00 | 0.00 | 0.00 | 77 | 1014.3 |
| 20260905084608 | 26 | 0 | 0.0 | 0.0 | 0.00 | 0.00 | 0.00 | 76 | 1014.3 |
| 20260905083056 | 26 | 0 | 0.0 | 0.0 | 0.00 | 0.00 | 0.00 | 75 | 1014.4 |
| 20260905081603 | 27 | 0 | 0.0 | 1.6 | 0.00 | 0.00 | 0.00 | 74 | 1014.3 |
| 20260905080121 | 27 | 0 | 0.0 | 0.0 | 0.00 | 0.00 | 0.00 | 72 | 1014.4 |
| 20260905074605 | 27 | 0 | 0.0 | 6.4 | 0.00 | 0.00 | 0.00 | 72 | 1014.4 |
| 20260905073109 | 27 | 211 | 1.6 | 6.4 | 0.00 | 0.00 | 0.00 | 71 | 1014.4 |
| 20260905071602 | 27 | 190 | 1.6 | 8.0 | 0.00 | 0.00 | 0.00 | 70 | 1014.5 |
| 20260905070104 | 28 | 178 | 6.4 | 9.7 | 0.00 | 0.00 | 0.00 | 70 | 1014.6 |
| 20260905064600 | 28 | 151 | 3.2 | 9.7 | 0.00 | 0.00 | 0.00 | 69 | 1014.7 |
| 20260905063108 | 28 | 168 | 1.6 | 8.0 | 0.00 | 0.00 | 0.00 | 68 | 1014.7 |
| 20260905061613 | 28 | 146 | 3.2 | 8.0 | 0.00 | 0.00 | 0.00 | 68 | 1014.7 |
| 20260905060113 | 28 | 170 | 1.6 | 9.7 | 0.00 | 0.00 | 0.00 | 67 | 1014.9 |
| 20260905054608 | 28 | 0 | 1.6 | 8.0 | 0.00 | 0.00 | 0.00 | 66 | 1014.8 |
| 20260905053104 | 28 | 171 | 3.2 | 9.7 | 0.00 | 0.00 | 0.00 | 66 | 1014.8 |
| 20260905051609 | 28 | 196 | 4.8 | 9.7 | 0.00 | 0.00 | 0.00 | 66 | 1014.9 |
| 20260905050104 | 28 | 159 | 3.2 | 11.3 | 0.00 | 0.00 | 0.00 | 66 | 1014.9 |
| 20260905044604 | 29 | 0 | 1.6 | 9.7 | 0.00 | 0.00 | 0.00 | 65 | 1014.9 |
| 20260905043101 | 29 | 161 | 4.8 | 9.7 | 0.00 | 0.00 | 0.00 | 64 | 1014.9 |
| 20260905041607 | 29 | 157 | 3.2 | 8.0 | 0.00 | 0.00 | 0.00 | 63 | 1014.8 |
| 20260905040112 | 29 | 187 | 1.6 | 6.4 | 0.00 | 0.00 | 0.00 | 63 | 1014.9 |
| 20260905034607 | 29 | 187 | 1.6 | 8.0 | 0.00 | 0.00 | 0.00 | 62 | 1014.9 |
| 20260905033107 | 29 | 187 | 1.6 | 6.4 | 0.00 | 0.00 | 0.00 | 62 | 1015.0 |
| 20260905031555 | 30 | 188 | 1.6 | 6.4 | 0.00 | 0.00 | 0.00 | 62 | 1015.1 |
| 20260905030111 | 30 | 0 | 0.0 | 6.4 | 0.00 | 0.00 | 0.00 | 62 | 1015.2 |
| 20260905024612 | 30 | 194 | 1.6 | 6.4 | 0.00 | 0.00 | 0.00 | 62 | 1015.1 |
| 20260905023107 | 30 | 194 | 1.6 | 6.4 | 0.00 | 0.00 | 0.00 | 62 | 1015.1 |